Time;durP1;ratioP1;P1;durP2;ratioP2;P2;SDS_P1;SDS_P2;PMS_P1;PMS_P2;Temp;Humidity;BMP_temperature;BMP_pressure;BME280_temperature;BME280_humidity;BME280_pressure;Samples;Min_cycle;Max_cycle;Signal;HPM_P1;HPM_P2
2023/01/09 00:01:23;;;;;;;24.53;13.33;;;5.40;99.90;4.90;99171;;;;581630;242;24089;-76
2023/01/09 00:03:51;;;;;;;32.53;16.43;;;5.40;99.90;4.90;99168;;;;573069;245;24083;-75
2023/01/09 00:06:19;;;;;;;38.50;12.17;;;5.40;99.90;4.90;99167;;;;574704;246;24116;-76
2023/01/09 00:08:47;;;;;;;30.93;16.13;;;5.40;99.90;4.90;99161;;;;579284;247;24097;-75
2023/01/09 00:11:15;;;;;;;27.33;14.70;;;5.40;99.90;4.90;99174;;;;578744;247;24082;-76
2023/01/09 00:13:46;;;;;;;26.23;14.97;;;5.40;99.90;4.80;99159;;;;579578;247;24090;-77
2023/01/09 00:16:11;;;;;;;33.00;15.87;;;5.40;99.90;4.90;99162;;;;581751;247;24114;-76
2023/01/09 00:18:40;;;;;;;27.57;15.80;;;5.40;99.90;4.90;99159;;;;578877;247;24076;-76
2023/01/09 00:21:11;;;;;;;31.93;17.00;;;5.40;99.90;4.90;99158;;;;578531;247;24080;-77
2023/01/09 00:23:39;;;;;;;33.17;17.53;;;5.40;99.90;4.90;99162;;;;571786;247;24135;-76
2023/01/09 00:26:09;;;;;;;29.50;16.37;;;5.40;99.90;4.90;99150;;;;580253;247;24114;-76
2023/01/09 00:28:37;;;;;;;31.27;15.43;;;5.40;99.90;4.80;99156;;;;572407;247;24095;-77
2023/01/09 00:31:06;;;;;;;31.70;15.90;;;5.40;99.90;4.80;99139;;;;578005;247;24091;-75
2023/01/09 00:33:36;;;;;;;31.73;16.27;;;5.30;99.90;4.80;99138;;;;581055;242;24080;-76
2023/01/09 00:36:04;;;;;;;24.63;14.53;;;5.40;99.90;4.80;99134;;;;571839;247;24088;-76
2023/01/09 00:38:36;;;;;;;30.73;18.00;;;5.40;99.90;4.80;99120;;;;572443;247;24099;-77
2023/01/09 00:41:03;;;;;;;33.07;16.63;;;5.40;99.90;4.80;99118;;;;571906;247;24095;-77
2023/01/09 00:43:28;;;;;;;30.70;16.57;;;5.40;99.90;4.90;99130;;;;571121;247;24111;-78
2023/01/09 00:45:56;;;;;;;27.50;15.87;;;5.40;99.90;4.90;99131;;;;577698;247;25224;-77
2023/01/09 00:48:28;;;;;;;39.15;24.85;;;5.40;99.90;4.90;99124;;;;566834;247;35362;-77
2023/01/09 00:50:52;;;;;;;35.70;21.37;;;5.40;99.90;4.90;99122;;;;571448;247;24104;-78
2023/01/09 00:53:20;;;;;;;33.17;17.63;;;5.40;99.90;4.90;99115;;;;571416;247;24253;-77
2023/01/09 00:55:50;;;;;;;29.73;16.97;;;5.40;99.90;4.90;99110;;;;577320;247;24088;-76
2023/01/09 00:58:16;;;;;;;29.70;15.93;;;5.40;99.90;4.90;99113;;;;571802;247;24110;-76
2023/01/09 01:00:44;;;;;;;33.30;17.73;;;5.40;99.90;4.90;99113;;;;572191;247;24077;-75
2023/01/09 01:03:15;;;;;;;30.07;16.73;;;5.40;99.90;4.80;99117;;;;577275;247;24098;-76
2023/01/09 01:08:30;;;;;;;27.73;15.23;;;5.40;99.90;4.80;99128;;;;577732;247;24155;-76
2023/01/09 01:10:54;;;;;;;20.77;13.03;;;5.40;99.90;4.80;99124;;;;569593;247;24079;-78
2023/01/09 01:13:21;;;;;;;25.90;13.83;;;5.40;99.90;4.80;99123;;;;577803;247;24104;-77
2023/01/09 01:15:49;;;;;;;25.90;14.83;;;5.40;99.90;4.80;99107;;;;578505;247;24093;-77
2023/01/09 01:18:17;;;;;;;27.27;16.43;;;5.40;99.90;4.80;99118;;;;578579;247;24087;-75
2023/01/09 01:20:46;;;;;;;39.00;23.75;;;5.40;99.90;4.80;99123;;;;573904;247;35295;-76
2023/01/09 01:23:15;;;;;;;39.07;20.67;;;5.30;99.90;4.80;99116;;;;578127;247;25139;-77
2023/01/09 01:25:46;;;;;;;29.50;16.23;;;5.30;99.90;4.80;99127;;;;578411;247;24107;-76
2023/01/09 01:28:14;;;;;;;27.83;15.70;;;5.40;99.90;4.80;99123;;;;571207;247;24137;-76
2023/01/09 01:30:38;;;;;;;32.30;16.47;;;5.30;99.90;4.80;99120;;;;570040;247;24096;-77
2023/01/09 01:33:06;;;;;;;25.60;13.87;;;5.30;99.90;4.80;99117;;;;572443;247;24105;-76
2023/01/09 01:35:34;;;;;;;36.03;16.67;;;5.30;99.90;4.80;99114;;;;572807;247;24092;-76
2023/01/09 01:38:07;;;;;;;28.13;16.27;;;5.30;99.90;4.80;99112;;;;572776;247;24102;-76
2023/01/09 01:40:34;;;;;;;30.67;16.40;;;5.30;99.90;4.80;99105;;;;569221;250;24100;-75
2023/01/09 01:43:03;;;;;;;28.23;15.47;;;5.30;99.90;4.80;99100;;;;567224;250;24097;-77
2023/01/09 01:45:27;;;;;;;30.97;16.93;;;5.30;99.90;4.70;99098;;;;566625;250;24118;-76
2023/01/09 01:48:00;;;;;;;28.90;16.53;;;5.30;99.90;4.70;99104;;;;576590;246;24125;-77
2023/01/09 01:50:50;;;;;;;28.50;16.17;;;5.30;99.90;4.70;99098;;;;571773;246;24094;-76
2023/01/09 01:53:18;;;;;;;29.73;15.17;;;5.30;99.90;4.70;99100;;;;572122;246;24101;-74
2023/01/09 01:56:23;;;;;;;25.07;14.27;;;5.20;99.90;4.70;99096;;;;576990;247;24078;-76
2023/01/09 01:59:14;;;;;;;31.83;16.93;;;5.20;99.90;4.70;99104;;;;576974;245;24195;-77
2023/01/09 02:01:43;;;;;;;29.80;17.67;;;5.20;99.90;4.70;99103;;;;579709;245;24073;-75
2023/01/09 02:04:14;;;;;;;27.73;14.80;;;5.20;99.90;4.70;99101;;;;583085;244;24063;-77
2023/01/09 02:06:39;;;;;;;25.67;13.43;;;5.20;99.90;4.70;99102;;;;589135;243;24133;-77
2023/01/09 02:09:10;;;;;;;27.20;16.43;;;5.20;99.90;4.70;99090;;;;584299;244;24118;-77
2023/01/09 02:11:38;;;;;;;28.43;13.00;;;5.20;99.90;4.70;99092;;;;573919;247;24088;-77
2023/01/09 02:14:03;;;;;;;32.33;14.70;;;5.20;99.90;4.70;99094;;;;569048;247;24082;-76
2023/01/09 02:16:55;;;;;;;31.53;15.63;;;5.20;99.90;4.60;99089;;;;575533;247;24095;-76
2023/01/09 02:19:53;;;;;;;23.37;14.40;;;5.20;99.90;4.60;99094;;;;575000;247;24056;-76
2023/01/09 02:22:36;;;;;;;29.57;15.47;;;5.20;99.90;4.60;99086;;;;578963;246;24053;-76
2023/01/09 02:25:53;;;;;;;32.83;16.97;;;5.10;99.90;4.60;99088;;;;578845;248;24093;-76
2023/01/09 02:29:09;;;;;;;26.67;15.77;;;5.10;99.90;4.60;99085;;;;561976;248;25144;-76
2023/01/09 02:31:49;;;;;;;31.53;15.67;;;5.10;99.90;4.60;99085;;;;571870;247;24086;-76
2023/01/09 02:34:23;;;;;;;21.90;13.70;;;5.10;99.90;4.50;99081;;;;572579;246;24092;-76
2023/01/09 02:37:27;;;;;;;29.97;16.10;;;5.10;99.90;4.50;99076;;;;568143;249;24077;-76
2023/01/09 02:40:15;;;;;;;30.50;15.77;;;5.10;99.90;4.50;99081;;;;568060;249;24116;-76
2023/01/09 02:42:48;;;;;;;33.47;17.63;;;5.00;99.90;4.50;99080;;;;577311;248;25163;-76
2023/01/09 02:45:12;;;;;;;31.57;16.87;;;5.00;99.90;4.50;99086;;;;567894;249;24093;-77
2023/01/09 02:47:40;;;;;;;28.43;15.97;;;5.00;99.90;4.50;99085;;;;571878;249;24098;-77
2023/01/09 02:50:08;;;;;;;28.57;17.00;;;5.00;99.90;4.50;99088;;;;572340;245;24074;-77
2023/01/09 02:53:00;;;;;;;33.13;17.23;;;5.00;99.90;4.50;99083;;;;577276;248;24092;-76
2023/01/09 02:55:43;;;;;;;30.37;17.03;;;5.00;99.90;4.50;99088;;;;567838;249;24115;-77
2023/01/09 02:58:49;;;;;;;19.20;12.30;;;5.00;99.90;4.50;99072;;;;568044;249;24077;-75
2023/01/09 03:02:11;;;;;;;27.23;14.63;;;5.00;99.90;4.50;99081;;;;568650;249;24100;-75
2023/01/09 03:05:02;;;;;;;30.33;16.23;;;5.00;99.90;4.50;99082;;;;571599;249;24070;-75
2023/01/09 03:07:39;;;;;;;36.57;18.93;;;5.00;99.90;4.40;99079;;;;576608;246;24109;-77
2023/01/09 03:10:19;;;;;;;36.13;17.67;;;5.00;99.90;4.40;99081;;;;579436;245;24090;-76
2023/01/09 03:12:48;;;;;;;31.17;17.10;;;5.00;99.90;4.40;99075;;;;571991;247;24056;-76
2023/01/09 03:15:16;;;;;;;39.83;19.10;;;4.90;99.90;4.40;99073;;;;576963;249;24139;-77
2023/01/09 03:17:44;;;;;;;32.03;16.60;;;4.90;99.90;4.40;99075;;;;567858;249;24090;-77
2023/01/09 03:20:12;;;;;;;34.33;19.50;;;4.90;99.90;4.40;99074;;;;577700;247;25114;-78
2023/01/09 03:22:40;;;;;;;35.77;17.23;;;5.00;99.90;4.40;99080;;;;576972;249;24141;-78
2023/01/09 03:25:09;;;;;;;43.03;26.08;;;5.00;99.90;4.40;99081;;;;567285;247;35170;-77
2023/01/09 03:27:37;;;;;;;34.57;20.23;;;5.00;99.90;4.50;99075;;;;577034;249;24096;-78
2023/01/09 03:30:08;;;;;;;26.70;14.20;;;5.00;99.90;4.50;99076;;;;567479;249;24094;-76
2023/01/09 03:32:37;;;;;;;43.40;19.93;;;5.00;99.90;4.50;99065;;;;567141;249;24086;-76
2023/01/09 03:35:01;;;;;;;28.07;14.63;;;5.00;99.90;4.50;99061;;;;567747;249;24196;-76
2023/01/09 03:37:29;;;;;;;29.67;14.10;;;5.00;99.90;4.50;99062;;;;570631;249;24097;-76
2023/01/09 03:39:57;;;;;;;30.10;17.67;;;5.10;99.90;4.50;99050;;;;572445;249;24097;-77
2023/01/09 03:42:28;;;;;;;39.47;18.73;;;5.00;99.90;4.40;99053;;;;572299;249;24154;-75
2023/01/09 03:44:54;;;;;;;36.47;17.50;;;4.90;99.90;4.40;99059;;;;564963;246;25129;-76
2023/01/09 03:47:22;;;;;;;29.13;14.50;;;4.90;99.90;4.40;99065;;;;571860;249;24079;-75
2023/01/09 03:49:50;;;;;;;18.13;9.60;;;4.90;99.90;4.40;99064;;;;571623;249;24109;-76
2023/01/09 03:52:17;;;;;;;32.13;16.90;;;4.90;99.90;4.30;99063;;;;572149;249;25104;-76
2023/01/09 03:54:46;;;;;;;36.97;18.27;;;4.90;99.90;4.30;99066;;;;572127;249;24100;-76
2023/01/09 03:57:14;;;;;;;37.57;18.97;;;4.80;99.90;4.30;99067;;;;571526;249;24084;-76
2023/01/09 03:59:42;;;;;;;19.63;11.73;;;4.90;99.90;4.30;99064;;;;571370;249;24087;-77
2023/01/09 04:02:10;;;;;;;30.90;14.87;;;4.90;99.90;4.20;99059;;;;571855;249;24082;-76
2023/01/09 04:04:39;;;;;;;34.23;17.73;;;4.80;99.90;4.30;99059;;;;571406;249;24108;-75
2023/01/09 04:07:06;;;;;;;32.97;18.23;;;4.80;99.90;4.30;99060;;;;568202;249;24082;-76
2023/01/09 04:09:34;;;;;;;35.57;18.37;;;4.80;99.90;4.20;99060;;;;571453;249;25168;-76
2023/01/09 04:12:02;;;;;;;35.43;17.67;;;4.80;99.90;4.20;99041;;;;576886;247;24160;-76
2023/01/09 04:14:30;;;;;;;37.13;18.37;;;4.80;99.90;4.20;99049;;;;571052;249;24174;-77
2023/01/09 04:17:01;;;;;;;35.80;18.77;;;4.80;99.90;4.20;99049;;;;571258;249;24094;-77
2023/01/09 04:19:27;;;;;;;39.00;18.93;;;4.80;99.90;4.20;99050;;;;567435;249;24120;-76
2023/01/09 04:21:55;;;;;;;36.87;17.97;;;4.80;99.90;4.20;99043;;;;570770;249;24077;-76
2023/01/09 04:24:23;;;;;;;38.47;18.60;;;4.80;99.90;4.20;99048;;;;571198;249;24101;-77
2023/01/09 04:26:50;;;;;;;32.50;15.73;;;4.80;99.90;4.20;99043;;;;570804;249;24088;-77
2023/01/09 04:29:18;;;;;;;36.63;18.87;;;4.80;99.90;4.20;99049;;;;571135;249;24097;-76
2023/01/09 04:31:46;;;;;;;38.87;19.13;;;4.80;99.90;4.30;99048;;;;568482;249;24126;-76
2023/01/09 04:34:14;;;;;;;39.97;18.47;;;4.80;99.90;4.30;99048;;;;571651;249;24112;-75
2023/01/09 04:36:43;;;;;;;38.30;19.10;;;4.80;99.90;4.30;99052;;;;571628;249;24081;-75
2023/01/09 04:39:11;;;;;;;42.63;19.07;;;4.80;99.90;4.30;99056;;;;570772;248;24104;-76
2023/01/09 04:41:50;;;;;;;35.67;17.27;;;4.80;99.90;4.30;99044;;;;571235;249;25176;-75
2023/01/09 04:44:25;;;;;;;38.10;17.80;;;4.80;99.90;4.30;99051;;;;570738;249;25144;-76
2023/01/09 04:46:50;;;;;;;42.67;17.50;;;4.90;99.90;4.30;99052;;;;575193;249;24135;-75
2023/01/09 04:49:19;;;;;;;41.13;16.63;;;4.90;99.90;4.30;99040;;;;577077;246;24132;-76
2023/01/09 04:51:50;;;;;;;33.50;17.20;;;4.90;99.90;4.30;99047;;;;569614;249;24098;-77
2023/01/09 04:54:18;;;;;;;34.30;17.37;;;4.90;99.90;4.30;99060;;;;569010;249;24092;-76
2023/01/09 04:56:42;;;;;;;37.63;16.43;;;4.90;99.90;4.30;99058;;;;568350;249;24091;-76
2023/01/09 04:59:11;;;;;;;37.60;18.47;;;4.90;99.90;4.40;99066;;;;572352;249;24099;-77
2023/01/09 05:01:39;;;;;;;31.33;17.83;;;4.90;99.90;4.40;99064;;;;572124;249;24093;-77
2023/01/09 05:04:10;;;;;;;36.83;18.03;;;4.90;99.90;4.30;99057;;;;572129;249;24088;-76
2023/01/09 05:06:35;;;;;;;39.43;19.13;;;4.90;99.90;4.40;99053;;;;571733;249;24094;-77
2023/01/09 05:09:03;;;;;;;39.47;18.03;;;4.90;99.90;4.40;99038;;;;567895;249;24090;-77
2023/01/09 05:11:30;;;;;;;42.83;18.57;;;4.90;99.90;4.40;99030;;;;568405;249;24119;-78
2023/01/09 05:13:58;;;;;;;34.00;18.80;;;4.90;99.90;4.40;99023;;;;571593;249;24099;-77
2023/01/09 05:16:27;;;;;;;39.57;17.63;;;4.90;99.90;4.40;99021;;;;571015;249;24088;-78
2023/01/09 05:18:56;;;;;;;49.87;19.23;;;4.90;99.90;4.40;99032;;;;571569;249;24106;-78
2023/01/09 05:21:26;;;;;;;32.70;17.17;;;4.90;99.90;4.40;99031;;;;570848;249;25128;-79
2023/01/09 05:23:53;;;;;;;33.10;16.70;;;4.90;99.90;4.40;99018;;;;568431;249;24090;-79
2023/01/09 05:26:26;;;;;;;39.57;18.03;;;4.90;99.90;4.40;99024;;;;571472;249;24083;-78
2023/01/09 05:28:56;;;;;;;35.73;16.43;;;4.90;99.90;4.40;99028;;;;566898;249;25175;-76
2023/01/09 05:31:23;;;;;;;35.77;18.37;;;4.90;99.90;4.40;99013;;;;567401;249;24113;-77
2023/01/09 05:33:51;;;;;;;36.80;19.00;;;4.90;99.90;4.40;99004;;;;567426;249;24117;-77
2023/01/09 05:36:16;;;;;;;36.83;17.57;;;5.00;99.90;4.40;99008;;;;576128;249;24112;-78
2023/01/09 05:38:44;;;;;;;34.20;17.50;;;5.00;99.90;4.40;98997;;;;571223;249;24084;-79
2023/01/09 05:41:13;;;;;;;41.57;19.93;;;4.90;99.90;4.40;98990;;;;571284;249;24080;-78
2023/01/09 05:43:41;;;;;;;37.83;18.90;;;4.90;99.90;4.40;98996;;;;572007;249;24068;-78
2023/01/09 05:46:09;;;;;;;37.87;18.27;;;4.90;99.90;4.40;98998;;;;572004;249;24086;-78
2023/01/09 05:48:37;;;;;;;33.00;16.70;;;4.90;99.90;4.40;98994;;;;571689;249;24085;-78
2023/01/09 05:51:05;;;;;;;32.10;17.33;;;4.90;99.90;4.40;98998;;;;571491;249;24102;-78
2023/01/09 05:53:36;;;;;;;37.03;20.10;;;4.90;99.90;4.40;98999;;;;571441;249;24061;-78
2023/01/09 05:56:01;;;;;;;41.97;18.27;;;4.90;99.90;4.40;98987;;;;563641;249;24121;-75
2023/01/09 05:58:29;;;;;;;26.20;16.60;;;4.90;99.90;4.30;98996;;;;571486;249;24073;-75
2023/01/09 06:01:01;;;;;;;48.58;27.48;;;4.90;99.90;4.30;98988;;;;565791;249;35278;-77
2023/01/09 06:03:26;;;;;;;42.20;22.77;;;4.90;99.90;4.40;98993;;;;568618;249;24108;-77
2023/01/09 06:05:54;;;;;;;45.17;19.67;;;4.90;99.90;4.40;98993;;;;572393;249;24178;-77
2023/01/09 06:08:22;;;;;;;38.00;18.53;;;4.90;99.90;4.40;98993;;;;571493;249;24094;-77
2023/01/09 06:10:50;;;;;;;21.23;12.63;;;4.90;99.90;4.30;98985;;;;572362;249;24163;-76
2023/01/09 06:13:18;;;;;;;39.13;20.80;;;4.90;99.90;4.40;98982;;;;572200;249;24092;-76
2023/01/09 06:15:46;;;;;;;28.40;16.63;;;4.90;99.90;4.40;98976;;;;577119;246;24109;-76
2023/01/09 06:18:14;;;;;;;33.40;18.23;;;4.90;99.90;4.40;98982;;;;581940;247;24073;-77
2023/01/09 06:20:42;;;;;;;36.13;19.40;;;4.90;99.90;4.40;98974;;;;581835;247;24078;-76
2023/01/09 06:23:10;;;;;;;36.23;18.83;;;4.90;99.90;4.40;98968;;;;576809;249;24110;-77
2023/01/09 06:25:42;;;;;;;43.73;20.23;;;4.90;99.90;4.40;98973;;;;568631;249;24159;-76
2023/01/09 06:28:10;;;;;;;30.07;15.30;;;4.90;99.90;4.40;98974;;;;567841;249;24098;-76
2023/01/09 06:30:35;;;;;;;38.33;19.27;;;4.90;99.90;4.40;98963;;;;571167;249;24112;-78
2023/01/09 06:33:03;;;;;;;39.47;18.70;;;4.90;99.90;4.40;98959;;;;571898;249;24161;-77
2023/01/09 06:35:31;;;;;;;46.37;20.90;;;4.90;99.90;4.40;98968;;;;571436;249;24078;-77
2023/01/09 06:38:00;;;;;;;39.73;18.23;;;4.90;99.90;4.40;98962;;;;571845;249;24091;-76
2023/01/09 06:40:27;;;;;;;33.80;18.07;;;4.90;99.90;4.40;98957;;;;571600;249;24093;-76
2023/01/09 06:42:55;;;;;;;34.83;16.27;;;4.90;99.90;4.40;98966;;;;570818;249;24085;-76
2023/01/09 06:45:22;;;;;;;42.80;20.30;;;5.00;99.90;4.40;98967;;;;567995;249;24100;-76
2023/01/09 06:47:51;;;;;;;33.77;19.13;;;5.00;99.90;4.40;98965;;;;571390;249;24096;-76
2023/01/09 06:50:23;;;;;;;39.83;19.43;;;5.00;99.90;4.50;98968;;;;568406;248;24130;-76
2023/01/09 06:52:48;;;;;;;40.13;20.20;;;5.00;99.90;4.50;98968;;;;568269;248;24105;-75
2023/01/09 06:55:16;;;;;;;34.07;18.20;;;5.00;99.90;4.50;98969;;;;571601;248;24082;-76
2023/01/09 06:57:43;;;;;;;37.50;18.67;;;5.00;99.90;4.50;98973;;;;567868;248;24107;-76
2023/01/09 07:00:12;;;;;;;38.87;19.87;;;5.00;99.90;4.50;98968;;;;568889;248;24137;-77
2023/01/09 07:02:40;;;;;;;43.77;20.30;;;5.00;99.90;4.50;98974;;;;568384;248;24104;-77
2023/01/09 07:05:10;;;;;;;41.73;20.17;;;5.00;99.90;4.50;98976;;;;571522;248;24077;-77
2023/01/09 07:07:39;;;;;;;45.83;18.67;;;5.00;99.90;4.50;98976;;;;571907;248;24089;-76
2023/01/09 07:10:05;;;;;;;40.17;18.00;;;5.00;99.90;4.40;98976;;;;567786;248;24116;-76
2023/01/09 07:12:32;;;;;;;45.50;18.47;;;5.00;99.90;4.50;98968;;;;568738;248;24171;-76
2023/01/09 07:15:00;;;;;;;47.93;23.17;;;5.00;99.90;4.50;98971;;;;573284;248;24088;-76
2023/01/09 07:17:28;;;;;;;39.20;19.30;;;5.00;99.90;4.50;98968;;;;573141;248;24087;-76
2023/01/09 07:19:56;;;;;;;35.20;19.70;;;5.00;99.90;4.50;98967;;;;572875;248;24087;-77
2023/01/09 07:22:24;;;;;;;41.93;19.83;;;5.10;99.90;4.50;98971;;;;572246;248;24081;-77
2023/01/09 07:24:52;;;;;;;31.33;18.00;;;5.10;99.90;4.50;98969;;;;569303;248;24091;-77
2023/01/09 07:27:21;;;;;;;42.63;20.23;;;5.10;99.90;4.50;98974;;;;568367;248;24073;-77
2023/01/09 07:29:52;;;;;;;43.57;18.93;;;5.10;99.90;4.60;98980;;;;574753;247;24072;-76
2023/01/09 07:32:16;;;;;;;28.17;16.67;;;5.10;99.90;4.50;98970;;;;568754;246;24126;-76
2023/01/09 07:34:44;;;;;;;34.13;14.07;;;5.10;99.90;4.50;98961;;;;573442;248;24149;-78
2023/01/09 07:37:12;;;;;;;39.80;20.13;;;5.10;99.90;4.50;98963;;;;571967;249;24077;-76
2023/01/09 07:39:40;;;;;;;46.00;20.37;;;5.10;99.90;4.50;98968;;;;571409;249;24113;-75
2023/01/09 07:42:08;;;;;;;46.27;20.23;;;5.10;99.90;4.50;98968;;;;571901;249;25115;-77
2023/01/09 07:44:36;;;;;;;47.87;19.70;;;5.10;99.90;4.50;98962;;;;571189;248;24097;-76
2023/01/09 07:47:08;;;;;;;39.33;20.27;;;5.10;99.90;4.50;98967;;;;571585;249;24116;-77
2023/01/09 07:49:32;;;;;;;39.23;19.73;;;5.10;99.90;4.50;98965;;;;570696;249;24116;-76
2023/01/09 07:52:01;;;;;;;36.03;18.93;;;5.10;99.90;4.60;98951;;;;571175;249;24118;-77
2023/01/09 07:54:28;;;;;;;40.23;19.73;;;5.10;99.90;4.50;98966;;;;571648;249;24079;-77
2023/01/09 07:56:59;;;;;;;39.40;18.37;;;5.10;99.90;4.50;98956;;;;571667;249;24084;-78
2023/01/09 07:59:28;;;;;;;44.73;22.03;;;5.10;99.90;4.50;98958;;;;568410;249;24123;-77
2023/01/09 08:01:59;;;;;;;55.67;30.23;;;5.10;99.90;4.50;98953;;;;566662;249;35428;-77
2023/01/09 08:04:23;;;;;;;52.40;30.03;;;5.10;99.90;4.50;98951;;;;570467;247;24103;-78
2023/01/09 08:06:51;;;;;;;49.83;22.83;;;5.10;99.90;4.50;98949;;;;562150;253;24097;-77
2023/01/09 08:09:19;;;;;;;42.80;19.83;;;5.10;99.90;4.50;98948;;;;578694;247;24100;-77
2023/01/09 08:11:49;;;;;;;43.90;20.93;;;5.10;99.90;4.50;98941;;;;570323;248;24083;-78
2023/01/09 08:14:16;;;;;;;44.00;19.80;;;5.00;99.90;4.50;98942;;;;573709;248;24122;-76
2023/01/09 08:16:44;;;;;;;48.20;24.00;;;5.00;99.90;4.50;98938;;;;579067;248;24098;-77
2023/01/09 08:19:16;;;;;;;43.83;18.27;;;5.00;99.90;4.50;98947;;;;573415;248;24082;-77
2023/01/09 08:21:41;;;;;;;46.53;21.80;;;5.00;99.90;4.50;98938;;;;567798;248;24108;-77
2023/01/09 08:24:09;;;;;;;36.97;18.73;;;5.00;99.90;4.40;98946;;;;570829;249;24097;-77
2023/01/09 08:26:37;;;;;;;37.93;17.40;;;5.00;99.90;4.40;98944;;;;573828;247;24059;-76
2023/01/09 08:29:05;;;;;;;46.40;21.53;;;5.00;99.90;4.40;98940;;;;582154;247;24068;-77
2023/01/09 08:31:33;;;;;;;41.27;20.63;;;5.00;99.90;4.40;98942;;;;572143;244;24088;-78
2023/01/09 08:34:01;;;;;;;46.33;21.63;;;5.00;99.90;4.40;98939;;;;569591;249;24099;-77
2023/01/09 08:36:29;;;;;;;45.17;20.30;;;5.00;99.90;4.40;98938;;;;568725;249;24140;-75
2023/01/09 08:38:57;;;;;;;52.43;17.50;;;5.00;99.90;4.40;98948;;;;572052;249;24081;-77
2023/01/09 08:47:05;;;;;;;39.00;18.83;;;5.00;99.90;4.40;98941;;;;570357;247;24133;-76
2023/01/09 08:49:37;;;;;;;37.87;17.10;;;4.90;99.90;4.40;98940;;;;581407;247;24079;-76
2023/01/09 08:52:04;;;;;;;43.50;21.13;;;5.00;99.90;4.40;98942;;;;567566;249;24088;-78
2023/01/09 08:54:29;;;;;;;47.23;21.33;;;4.90;99.90;4.40;98941;;;;564257;249;24114;-76
2023/01/09 08:56:57;;;;;;;38.43;17.87;;;4.90;99.90;4.40;98946;;;;571967;249;24118;-76
2023/01/09 08:59:25;;;;;;;43.47;21.67;;;4.90;99.90;4.40;98948;;;;577410;247;24077;-77
2023/01/09 09:01:53;;;;;;;51.57;21.67;;;5.00;99.90;4.40;98944;;;;571785;249;24074;-76
2023/01/09 09:04:25;;;;;;;39.47;19.47;;;5.00;99.90;4.50;98940;;;;571660;249;24075;-76
2023/01/09 09:06:49;;;;;;;40.13;19.17;;;5.00;99.90;4.40;98949;;;;567188;249;24106;-77
2023/01/09 09:09:18;;;;;;;32.10;14.67;;;5.00;99.90;4.40;98951;;;;572009;249;24095;-77
2023/01/09 09:11:45;;;;;;;37.17;15.87;;;5.00;99.90;4.40;98943;;;;572098;249;24082;-77
2023/01/09 09:16:58;;;;;;;38.50;19.33;;;4.90;99.90;4.30;98938;;;;572229;249;24076;-78
2023/01/09 09:19:29;;;;;;;39.47;19.90;;;4.90;99.90;4.30;98939;;;;568888;249;24073;-77
2023/01/09 09:21:55;;;;;;;37.47;19.77;;;4.80;99.90;4.20;98942;;;;571063;249;24130;-78
2023/01/09 09:24:25;;;;;;;33.67;15.17;;;4.80;99.90;4.20;98929;;;;570754;249;24071;-77
2023/01/09 09:26:51;;;;;;;43.63;21.53;;;4.80;99.90;4.20;98926;;;;563793;249;24106;-77
2023/01/09 09:29:19;;;;;;;37.67;16.57;;;4.70;99.90;4.10;98929;;;;571245;249;24086;-77
2023/01/09 09:31:46;;;;;;;43.60;20.87;;;4.70;99.90;4.10;98919;;;;571173;249;24102;-77
2023/01/09 09:34:14;;;;;;;45.63;20.33;;;4.70;99.90;4.20;98927;;;;570811;249;24158;-77
2023/01/09 09:36:43;;;;;;;27.83;12.40;;;4.70;99.90;4.20;98927;;;;571635;248;24089;-78
2023/01/09 09:39:11;;;;;;;48.63;20.63;;;4.70;99.90;4.10;98918;;;;572665;249;24100;-76
2023/01/09 09:45:25;;;;;;;54.97;28.67;;;4.70;99.90;4.20;98919;;;;569764;247;35305;-76
2023/01/09 09:48:11;;;;;;;45.73;23.43;;;4.70;99.90;4.10;98918;;;;581212;245;25115;-77
2023/01/09 09:50:51;;;;;;;38.33;17.33;;;4.70;99.90;4.20;98912;;;;570109;247;24108;-78
2023/01/09 09:53:21;;;;;;;41.17;20.13;;;4.70;99.90;4.10;98931;;;;580411;245;24090;-76
2023/01/09 09:55:49;;;;;;;35.07;18.07;;;4.70;99.90;4.20;98923;;;;567481;249;24124;-77
2023/01/09 09:58:24;;;;;;;43.80;19.80;;;4.70;99.90;4.10;98922;;;;567874;249;24273;-78
2023/01/09 10:00:52;;;;;;;45.67;19.80;;;4.70;99.90;4.10;98919;;;;571131;249;24098;-77
2023/01/09 10:03:41;;;;;;;40.00;17.97;;;4.70;99.90;4.10;98925;;;;576843;249;24094;-77
2023/01/09 10:06:21;;;;;;;40.77;18.73;;;4.70;99.90;4.10;98918;;;;572377;247;24053;-77
2023/01/09 10:08:51;;;;;;;42.80;19.47;;;4.70;99.90;4.10;98922;;;;571932;247;24094;-78
2023/01/09 10:11:21;;;;;;;43.83;20.40;;;4.70;99.90;4.10;98927;;;;576201;249;24079;-77
2023/01/09 10:14:04;;;;;;;41.27;17.83;;;4.60;99.90;4.00;98911;;;;580440;241;24089;-77
2023/01/09 10:16:41;;;;;;;42.27;19.23;;;4.60;99.90;4.00;98911;;;;580448;247;24063;-78
2023/01/09 10:19:33;;;;;;;36.93;17.63;;;4.60;99.90;4.00;98911;;;;576107;249;24081;-76
2023/01/09 10:22:13;;;;;;;40.20;18.97;;;4.60;99.90;4.00;98914;;;;569721;249;24107;-78
2023/01/09 10:25:08;;;;;;;45.47;20.63;;;4.60;99.90;4.10;98902;;;;578072;247;24084;-76
2023/01/09 10:28:06;;;;;;;40.87;20.60;;;4.60;99.90;4.10;98910;;;;576145;249;24125;-77
2023/01/09 10:30:52;;;;;;;32.90;17.43;;;4.60;99.90;4.10;98907;;;;567816;249;24101;-77
2023/01/09 10:33:35;;;;;;;42.10;20.60;;;4.70;99.90;4.10;98904;;;;576880;245;24068;-77
2023/01/09 10:36:36;;;;;;;38.90;17.10;;;4.70;99.90;4.10;98894;;;;575972;245;24076;-76
2023/01/09 10:39:04;;;;;;;31.60;15.47;;;4.70;99.90;4.10;98890;;;;576111;246;25147;-76
2023/01/09 10:41:38;;;;;;;45.53;20.73;;;4.70;99.90;4.10;98886;;;;580156;246;24072;-77
2023/01/09 10:44:28;;;;;;;35.87;18.37;;;4.70;99.90;4.20;98885;;;;576413;246;24093;-76
2023/01/09 10:46:56;;;;;;;45.87;21.20;;;4.70;99.90;4.10;98893;;;;576232;245;24136;-76
2023/01/09 10:49:25;;;;;;;56.97;20.93;;;4.70;99.90;4.20;98901;;;;573637;247;24076;-76
2023/01/09 10:51:59;;;;;;;44.83;19.83;;;4.80;99.90;4.10;98884;;;;573627;247;24062;-75
2023/01/09 10:54:27;;;;;;;35.30;17.30;;;4.70;99.90;4.10;98896;;;;578234;249;24085;-77
2023/01/09 10:57:06;;;;;;;31.20;15.07;;;4.70;99.90;4.10;98899;;;;572325;249;24089;-76
2023/01/09 10:59:34;;;;;;;32.43;15.53;;;4.70;99.90;4.10;98895;;;;580030;247;24104;-76
2023/01/09 11:02:05;;;;;;;34.73;17.77;;;4.70;99.90;4.10;98891;;;;570562;248;24119;-77
2023/01/09 11:04:33;;;;;;;22.83;10.97;;;4.70;99.90;4.10;98889;;;;569673;247;24101;-76
2023/01/09 11:07:15;;;;;;;56.17;20.77;;;4.70;99.90;4.00;98892;;;;578917;248;24118;-76
2023/01/09 11:10:01;;;;;;;45.33;19.87;;;4.60;99.90;4.10;98886;;;;579638;246;24074;-76
2023/01/09 11:12:29;;;;;;;30.73;12.63;;;4.60;99.90;4.10;98890;;;;581769;246;24066;-76
2023/01/09 11:15:15;;;;;;;41.57;20.80;;;4.70;99.90;4.10;98884;;;;568560;249;24182;-77
2023/01/09 11:17:43;;;;;;;50.70;21.37;;;4.70;99.90;4.10;98876;;;;572564;245;24067;-77
2023/01/09 11:20:23;;;;;;;39.90;19.90;;;4.70;99.90;4.10;98876;;;;577356;247;24104;-76
2023/01/09 11:22:54;;;;;;;35.90;17.97;;;4.70;99.90;4.20;98875;;;;568278;249;24119;-77
2023/01/09 11:25:18;;;;;;;42.77;17.97;;;4.70;99.90;4.20;98877;;;;567769;249;24136;-78
2023/01/09 11:28:02;;;;;;;36.27;17.50;;;4.70;99.90;4.20;98857;;;;577834;247;24101;-77
2023/01/09 11:30:34;;;;;;;43.67;19.27;;;4.70;99.90;4.20;98869;;;;577255;249;24093;-77
2023/01/09 11:32:58;;;;;;;50.70;20.57;;;4.80;99.90;4.20;98866;;;;567563;249;24116;-77
2023/01/09 11:35:32;;;;;;;44.67;20.13;;;4.80;99.90;4.20;98861;;;;568144;249;24094;-77
2023/01/09 11:38:03;;;;;;;40.60;20.00;;;4.80;99.90;4.30;98863;;;;567975;249;24094;-77
2023/01/09 11:40:31;;;;;;;46.23;20.57;;;4.80;99.90;4.30;98861;;;;578375;247;24105;-78
2023/01/09 11:43:01;;;;;;;40.90;17.13;;;4.80;99.90;4.30;98857;;;;580913;244;24071;-76
2023/01/09 11:45:32;;;;;;;48.83;21.00;;;4.90;99.90;4.30;98856;;;;577046;249;24117;-76
2023/01/09 11:48:03;;;;;;;44.60;20.57;;;4.90;99.90;4.40;98858;;;;578328;247;24067;-77
2023/01/09 11:50:29;;;;;;;40.00;18.70;;;4.90;99.90;4.40;98862;;;;577085;249;25145;-77